createdAt,value
2022-09-20T00:04:43.233Z,102470.44
2022-09-20T00:16:40.896Z,102474.41
2022-09-20T00:21:42.477Z,102473.00
2022-09-20T00:26:43.973Z,102472.41
2022-09-20T00:31:45.611Z,102471.44
2022-09-20T00:36:47.166Z,102476.28
2022-09-20T00:41:48.678Z,102492.16
2022-09-20T00:46:50.209Z,102496.38
2022-09-20T00:51:59.631Z,102500.25
2022-09-20T00:57:01.549Z,102510.41
2022-09-20T01:02:09.188Z,102512.84
2022-09-20T01:07:15.490Z,102509.50
2022-09-20T01:12:23.437Z,102515.63
2022-09-20T01:17:28.111Z,102510.50
2022-09-20T01:22:36.039Z,102517.28
2022-09-20T01:27:52.246Z,102510.81
2022-09-20T01:33:13.845Z,102524.09
2022-09-20T01:38:34.699Z,102526.66
2022-09-20T01:43:49.098Z,102538.91
2022-09-20T01:48:57.059Z,102537.53
2022-09-20T01:54:37.136Z,102534.97
2022-09-20T01:59:51.583Z,102527.06
2022-09-20T02:05:27.526Z,102522.41
2022-09-20T02:10:55.281Z,102509.69
2022-09-20T02:16:06.151Z,102506.84
2022-09-20T02:21:23.061Z,102508.09
2022-09-20T02:26:40.301Z,102513.63
2022-09-20T02:32:24.136Z,102516.66
2022-09-20T02:37:50.265Z,102519.03
2022-09-20T02:42:51.743Z,102534.19
2022-09-20T02:47:57.988Z,102545.47
2022-09-20T02:53:35.025Z,102551.75
2022-09-20T02:59:01.420Z,102554.09
2022-09-20T03:04:22.407Z,102558.44
2022-09-20T03:09:34.875Z,102560.19
2022-09-20T03:14:53.634Z,102567.31
2022-09-20T03:20:20.119Z,102569.09
2022-09-20T03:25:34.457Z,102574.41
2022-09-20T03:30:51.612Z,102573.22
2022-09-20T03:36:12.466Z,102566.91
2022-09-20T03:41:32.834Z,102559.19
2022-09-20T03:46:45.622Z,102570.47
2022-09-20T03:52:35.582Z,102568.84
2022-09-20T03:57:59.140Z,102568.69
2022-09-20T04:03:13.976Z,102577.38
2022-09-20T04:08:40.185Z,102562.47
2022-09-20T04:13:54.732Z,102570.38
2022-09-20T04:19:04.386Z,102567.13
2022-09-20T04:24:25.660Z,102554.09
2022-09-20T04:29:39.526Z,102554.78
2022-09-20T04:35:08.264Z,102559.22
2022-09-20T04:40:24.382Z,102564.19
2022-09-20T04:45:37.218Z,102567.31
2022-09-20T04:51:18.419Z,102566.91
2022-09-20T04:56:21.787Z,102583.31
2022-09-20T05:01:57.204Z,102588.63
2022-09-20T05:07:57.733Z,102599.09
2022-09-20T05:13:30.459Z,102614.66
2022-09-20T05:19:07.939Z,102624.34
2022-09-20T05:24:47.678Z,102633.03
2022-09-20T05:30:05.274Z,102629.09
2022-09-20T05:35:14.426Z,102634.59
2022-09-20T05:40:29.134Z,102641.50
2022-09-20T05:45:55.618Z,102640.50
2022-09-20T05:51:23.181Z,102632.91
2022-09-20T05:56:55.570Z,102632.69
2022-09-20T06:01:57.159Z,102622.97
2022-09-20T06:07:27.000Z,102619.34
2022-09-20T06:13:01.588Z,102607.03
2022-09-20T06:18:33.536Z,102614.66
2022-09-20T06:23:36.478Z,102616.88
2022-09-20T06:29:07.178Z,102612.78
2022-09-20T06:34:14.805Z,102611.44
2022-09-20T06:39:42.562Z,102577.66
2022-09-20T06:44:44.110Z,102505.72
2022-09-20T06:49:47.668Z,102424.31
2022-09-20T06:54:55.735Z,102385.25
2022-09-20T06:59:57.201Z,102386.41
2022-09-20T07:04:59.204Z,102401.31
2022-09-20T07:10:00.906Z,102405.44
2022-09-20T07:15:02.441Z,102401.72
2022-09-20T07:20:04.196Z,102410.53
2022-09-20T07:25:06.215Z,102396.75
2022-09-20T07:30:08.977Z,102405.53
2022-09-20T07:35:11.601Z,102412.91
2022-09-20T07:40:14.689Z,102395.44
2022-09-20T07:45:16.367Z,102396.38
2022-09-20T07:50:19.416Z,102391.72
2022-09-20T07:55:21.140Z,102382.56
2022-09-20T08:00:23.916Z,102381.63
2022-09-20T08:05:25.667Z,102361.16
2022-09-20T08:10:27.195Z,102356.50
2022-09-20T08:15:29.251Z,102363.94
2022-09-20T08:20:30.950Z,102360.41
2022-09-20T08:25:33.140Z,102351.97
2022-09-20T08:30:34.688Z,102360.25
2022-09-20T08:35:38.167Z,102357.84
2022-09-20T08:40:40.064Z,102337.53
2022-09-20T08:45:41.965Z,102359.56
2022-09-20T08:50:43.999Z,102349.97
2022-09-20T08:55:46.098Z,102324.75
2022-09-20T09:00:47.898Z,102331.50
2022-09-20T09:05:55.028Z,102326.94
2022-09-20T09:10:59.250Z,102329.94
2022-09-20T09:16:06.805Z,102330.50
2022-09-20T09:21:10.410Z,102310.81
2022-09-20T09:26:19.035Z,102300.91
2022-09-20T09:31:25.947Z,102300.59
2022-09-20T09:36:27.615Z,102305.84
2022-09-20T09:41:35.718Z,102315.34
2022-09-20T09:46:40.186Z,102306.75
2022-09-20T09:52:01.691Z,102308.63
2022-09-20T09:57:25.047Z,102303.84
2022-09-20T10:02:55.926Z,102302.97
2022-09-20T10:08:15.497Z,102307.56
2022-09-20T10:13:38.272Z,102304.78
2022-09-20T10:19:12.569Z,102294.44
2022-09-20T10:24:52.208Z,102290.66
2022-09-20T10:30:04.700Z,102284.81
2022-09-20T10:35:22.475Z,102290.41
2022-09-20T10:41:07.034Z,102289.91
2022-09-20T10:46:32.229Z,102295.69
2022-09-20T10:52:03.230Z,102292.19
2022-09-20T10:57:46.857Z,102280.75
2022-09-20T11:03:33.712Z,102294.94
2022-09-20T11:08:38.206Z,102298.00
2022-09-20T11:13:58.278Z,102280.53
2022-09-20T11:19:18.514Z,102278.53
2022-09-20T11:24:32.178Z,102287.66
2022-09-20T11:29:40.805Z,102286.81
2022-09-20T11:34:51.982Z,102285.25
2022-09-20T11:39:55.053Z,102280.09
2022-09-20T11:44:56.869Z,102295.28
2022-09-20T11:50:35.163Z,102292.50
2022-09-20T11:56:05.158Z,102297.22
2022-09-20T12:01:13.742Z,102294.91
2022-09-20T12:06:30.036Z,102301.25
2022-09-20T12:11:38.774Z,102303.00
2022-09-20T12:16:47.090Z,102307.19
2022-09-20T12:22:04.971Z,102312.75
2022-09-20T12:27:27.450Z,102305.75
2022-09-20T12:32:40.462Z,102315.09
2022-09-20T12:37:42.451Z,102318.13
2022-09-20T12:42:44.000Z,102304.75
2022-09-20T12:47:54.918Z,102302.31
2022-09-20T12:52:58.805Z,102294.59
2022-09-20T12:58:02.556Z,102291.69
2022-09-20T13:03:23.879Z,102295.94
2022-09-20T13:08:29.069Z,102302.88
2022-09-20T13:13:41.923Z,102297.75
2022-09-20T13:18:43.897Z,102305.28
2022-09-20T13:23:54.198Z,102306.28
2022-09-20T13:28:59.146Z,102299.47
2022-09-20T13:34:19.335Z,102293.94
2022-09-20T13:39:28.922Z,102286.56
2022-09-20T13:44:34.419Z,102296.25
2022-09-20T13:49:43.137Z,102296.38
2022-09-20T13:54:45.619Z,102292.72
2022-09-20T13:59:48.521Z,102297.25
2022-09-20T14:04:54.532Z,102294.69
2022-09-20T14:09:56.895Z,102287.84
2022-09-20T14:14:58.808Z,102294.69
2022-09-20T14:20:00.658Z,102291.00
2022-09-20T14:25:25.366Z,102291.56
2022-09-20T14:30:29.490Z,102292.94
2022-09-20T14:35:31.785Z,102297.19
2022-09-20T14:40:43.660Z,102298.78
2022-09-20T14:45:53.776Z,102296.47
2022-09-20T14:51:22.114Z,102296.47
2022-09-20T14:56:33.867Z,102279.84
2022-09-20T15:01:37.699Z,102282.81
2022-09-20T15:06:39.926Z,102287.09
2022-09-20T15:11:41.519Z,102281.06
2022-09-20T15:16:43.033Z,102290.69
2022-09-20T15:21:44.874Z,102297.91
2022-09-20T15:26:46.403Z,102299.19
2022-09-20T15:31:49.006Z,102307.75
2022-09-20T15:36:50.799Z,102305.59
2022-09-20T15:41:57.178Z,102316.09
2022-09-20T15:46:58.808Z,102316.63
2022-09-20T15:52:01.553Z,102314.97
2022-09-20T15:57:03.890Z,102313.03
2022-09-20T16:02:05.543Z,102319.44
2022-09-20T16:07:07.774Z,102320.91
2022-09-20T16:12:09.307Z,102320.47
2022-09-20T16:17:10.773Z,102327.34
2022-09-20T16:22:12.582Z,102336.94
2022-09-20T16:27:14.963Z,102331.63
2022-09-20T16:32:16.651Z,102331.28
2022-09-20T16:37:18.953Z,102324.94
2022-09-20T16:42:21.003Z,102335.28
2022-09-20T16:47:25.207Z,102346.28
2022-09-20T16:52:27.996Z,102352.75
2022-09-20T16:57:39.569Z,102350.66
2022-09-20T17:02:47.149Z,102359.94
2022-09-20T17:07:49.267Z,102361.66
2022-09-20T17:12:57.579Z,102373.41
2022-09-20T17:17:59.085Z,102377.00
2022-09-20T17:23:01.497Z,102387.88
2022-09-20T17:28:02.995Z,102399.00
2022-09-20T17:33:08.669Z,102425.44
2022-09-20T17:38:10.539Z,102425.88
2022-09-20T17:43:12.067Z,102431.81
2022-09-20T17:48:14.842Z,102469.47
2022-09-20T17:53:16.361Z,102483.00
2022-09-20T17:58:17.962Z,102504.47
2022-09-20T18:03:19.490Z,102512.03
2022-09-20T18:08:21.189Z,102511.75
2022-09-20T18:13:23.123Z,102532.38
2022-09-20T18:18:24.615Z,102541.91
2022-09-20T18:23:26.778Z,102544.69
2022-09-20T18:28:28.923Z,102550.66
2022-09-20T18:33:32.008Z,102571.53
2022-09-20T18:38:33.590Z,102583.63
2022-09-20T18:43:35.527Z,102601.66
2022-09-20T18:48:39.746Z,102614.50
2022-09-20T18:53:41.737Z,102610.38
2022-09-20T18:58:44.697Z,102620.78
2022-09-20T19:03:55.962Z,102626.38
2022-09-20T19:09:07.359Z,102639.16
2022-09-20T19:14:37.987Z,102645.72
2022-09-20T19:20:16.361Z,102664.97
2022-09-20T19:25:43.473Z,102683.41
2022-09-20T19:30:47.344Z,102682.84
2022-09-20T19:35:51.543Z,102672.00
2022-09-20T19:41:18.069Z,102678.97
2022-09-20T19:46:40.206Z,102685.16
2022-09-20T19:51:44.082Z,102707.09
2022-09-20T19:56:54.855Z,102714.13
2022-09-20T20:01:57.620Z,102723.72
2022-09-20T20:07:17.795Z,102734.16
2022-09-20T20:12:31.409Z,102744.03
2022-09-20T20:18:08.434Z,102748.19
2022-09-20T20:23:55.527Z,102738.28
2022-09-20T20:28:57.134Z,102752.13
2022-09-20T20:33:58.648Z,102757.03
2022-09-20T20:39:00.122Z,102765.91
2022-09-20T20:44:05.968Z,102763.94
2022-09-20T20:49:07.443Z,102775.16
2022-09-20T20:54:10.330Z,102774.72
2022-09-20T20:59:11.886Z,102788.53
2022-09-20T21:04:15.203Z,102796.00
2022-09-20T21:09:16.771Z,102795.38
2022-09-20T21:14:18.294Z,102800.75
2022-09-20T21:19:20.094Z,102895.53
2022-09-20T21:24:21.597Z,102891.88
2022-09-20T21:29:23.089Z,102897.78
2022-09-20T21:34:24.936Z,102889.41
2022-09-20T21:39:29.535Z,102898.44
2022-09-20T21:44:31.176Z,102906.72
2022-09-20T21:49:32.630Z,102916.28
2022-09-20T21:54:36.072Z,102918.09
2022-09-20T21:59:37.678Z,102924.31
2022-09-20T22:04:42.303Z,102931.00
2022-09-20T22:09:43.778Z,102932.13
2022-09-20T22:14:45.244Z,102937.25
2022-09-20T22:19:47.821Z,102942.47
2022-09-20T22:24:49.381Z,102944.94
2022-09-20T22:29:51.064Z,102942.59
2022-09-20T22:34:52.719Z,102938.59
2022-09-20T22:39:54.254Z,102936.78
2022-09-20T22:44:55.751Z,102941.00
2022-09-20T22:49:57.218Z,102924.31
2022-09-20T22:54:58.710Z,102918.97
2022-09-20T23:00:00.319Z,102935.13
2022-09-20T23:05:01.803Z,102934.09
2022-09-20T23:10:03.621Z,102932.31
2022-09-20T23:15:06.933Z,102935.69
2022-09-20T23:20:09.531Z,102937.25
2022-09-20T23:25:11.211Z,102942.81
2022-09-20T23:30:12.771Z,102940.13
2022-09-20T23:35:14.346Z,102948.25
2022-09-20T23:40:16.055Z,102956.19
2022-09-20T23:45:17.549Z,102957.50
2022-09-20T23:50:20.004Z,102959.25
2022-09-20T23:55:21.499Z,102953.91
